createdAt,value
2022-08-30T00:01:14.520Z,98697.11
2022-08-30T00:03:48.032Z,98695.12
2022-08-30T00:06:22.816Z,98696.30
2022-08-30T00:08:56.356Z,98701.15
2022-08-30T00:11:30.309Z,98699.77
2022-08-30T00:14:05.699Z,98704.35
2022-08-30T00:16:38.337Z,98703.80
2022-08-30T00:19:10.637Z,98710.55
2022-08-30T00:21:42.819Z,98709.02
2022-08-30T00:24:15.067Z,98712.71
2022-08-30T00:26:47.652Z,98710.19
2022-08-30T00:29:22.223Z,98715.14
2022-08-30T00:31:54.484Z,98715.56
2022-08-30T00:34:27.011Z,98715.30
2022-08-30T00:36:59.287Z,98711.04
2022-08-30T00:39:31.518Z,98707.52
2022-08-30T00:42:03.828Z,98704.27
2022-08-30T00:44:36.157Z,98707.04
2022-08-30T00:47:09.164Z,98705.63
2022-08-30T00:49:44.975Z,98706.23
2022-08-30T00:52:18.730Z,98711.56
2022-08-30T00:54:53.418Z,98712.09
2022-08-30T00:57:25.757Z,98715.62
2022-08-30T00:59:58.132Z,98715.60
2022-08-30T01:02:33.545Z,98712.46
2022-08-30T01:05:10.824Z,98706.38
2022-08-30T01:07:50.774Z,98707.59
2022-08-30T01:10:23.491Z,98707.86
2022-08-30T01:12:55.683Z,98704.27
2022-08-30T01:15:32.843Z,98709.76
2022-08-30T01:18:07.930Z,98713.04
2022-08-30T01:20:49.237Z,98715.89
2022-08-30T01:23:23.150Z,98713.85
2022-08-30T01:25:57.392Z,98715.77
2022-08-30T01:28:31.152Z,98716.35
2022-08-30T01:31:03.630Z,98717.95
2022-08-30T01:33:40.446Z,98718.21
2022-08-30T01:36:15.288Z,98715.23
2022-08-30T01:38:50.877Z,98716.14
2022-08-30T01:41:26.054Z,98715.63
2022-08-30T01:44:00.767Z,98716.93
2022-08-30T01:46:37.424Z,98716.66
2022-08-30T01:49:14.500Z,98722.41
2022-08-30T01:51:47.223Z,98721.26
2022-08-30T01:54:19.496Z,98713.77
2022-08-30T01:56:52.137Z,98714.56
2022-08-30T01:59:24.415Z,98712.27
2022-08-30T02:01:59.728Z,98712.05
2022-08-30T02:04:32.361Z,98709.14
2022-08-30T02:07:05.142Z,98706.10
2022-08-30T02:09:38.920Z,98703.40
2022-08-30T02:12:11.482Z,98699.66
2022-08-30T02:14:45.088Z,98697.36
2022-08-30T02:17:19.670Z,98698.80
2022-08-30T02:19:51.905Z,98690.79
2022-08-30T02:22:27.173Z,98686.65
2022-08-30T02:24:59.425Z,98689.85
2022-08-30T02:27:32.585Z,98687.77
2022-08-30T02:30:05.837Z,98688.80
2022-08-30T02:32:38.384Z,98692.81
2022-08-30T02:35:11.461Z,98689.42
2022-08-30T02:37:43.696Z,98688.20
2022-08-30T02:40:18.403Z,98688.65
2022-08-30T02:42:51.664Z,98687.77
2022-08-30T02:45:26.934Z,98684.35
2022-08-30T02:47:59.557Z,98685.47
2022-08-30T02:50:32.384Z,98686.95
2022-08-30T02:53:05.311Z,98689.62
2022-08-30T02:55:38.068Z,98689.25
2022-08-30T02:58:12.020Z,98687.52
2022-08-30T03:00:44.571Z,98689.34
2022-08-30T03:03:17.168Z,98688.16
2022-08-30T03:05:49.741Z,98684.58
2022-08-30T03:08:23.001Z,98681.16
2022-08-30T03:10:57.006Z,98682.90
2022-08-30T03:13:32.727Z,98686.39
2022-08-30T03:16:05.603Z,98684.42
2022-08-30T03:18:37.993Z,98682.77
2022-08-30T03:21:15.599Z,98686.19
2022-08-30T03:23:48.547Z,98684.99
2022-08-30T03:26:20.866Z,98685.25
2022-08-30T03:28:53.604Z,98690.43
2022-08-30T03:31:25.942Z,98687.84
2022-08-30T03:33:58.182Z,98689.72
2022-08-30T03:36:30.562Z,98689.95
2022-08-30T03:39:02.768Z,98690.37
2022-08-30T03:41:37.490Z,98697.91
2022-08-30T03:44:11.683Z,98699.18
2022-08-30T03:46:45.264Z,98704.10
2022-08-30T03:49:21.695Z,98708.20
2022-08-30T03:51:53.977Z,98709.96
2022-08-30T03:54:27.392Z,98713.27
2022-08-30T03:56:59.810Z,98712.75
2022-08-30T03:59:32.008Z,98713.84
2022-08-30T04:02:05.220Z,98712.44
2022-08-30T04:04:37.441Z,98715.69
2022-08-30T04:07:09.669Z,98719.27
2022-08-30T04:09:42.773Z,98718.69
2022-08-30T04:12:18.327Z,98720.39
2022-08-30T04:14:54.851Z,98722.44
2022-08-30T04:17:27.545Z,98726.83
2022-08-30T04:20:00.064Z,98727.27
2022-08-30T04:22:32.765Z,98723.59
2022-08-30T04:25:15.620Z,98726.14
2022-08-30T04:27:49.413Z,98730.29
2022-08-30T04:30:23.810Z,98730.23
2022-08-30T04:32:58.712Z,98732.09
2022-08-30T04:35:36.402Z,98733.61
2022-08-30T04:38:08.677Z,98732.17
2022-08-30T04:40:43.594Z,98734.95
2022-08-30T04:43:16.426Z,98734.16
2022-08-30T04:46:08.808Z,98733.87
2022-08-30T04:48:41.521Z,98738.90
2022-08-30T05:00:22.002Z,98755.56
2022-08-30T05:02:54.606Z,98761.05
2022-08-30T05:05:42.505Z,98762.01
2022-08-30T05:08:16.858Z,98763.44
2022-08-30T05:10:51.391Z,98762.40
2022-08-30T05:14:12.604Z,98765.93
2022-08-30T05:16:45.655Z,98763.39
2022-08-30T05:19:17.920Z,98766.30
2022-08-30T05:21:50.060Z,98769.41
2022-08-30T05:24:22.184Z,98771.23
2022-08-30T05:26:54.449Z,98774.52
2022-08-30T05:29:26.897Z,98774.02
2022-08-30T05:31:59.246Z,98772.36
2022-08-30T05:34:34.746Z,98777.88
2022-08-30T05:37:07.013Z,98778.90
2022-08-30T05:39:50.837Z,98776.25
2022-08-30T05:42:23.785Z,98779.81
2022-08-30T05:45:28.835Z,98780.46
2022-08-30T05:53:17.142Z,98786.91
2022-08-30T05:55:49.718Z,98789.38
2022-08-30T06:03:13.184Z,98781.90
2022-08-30T06:06:52.723Z,98779.23
2022-08-30T06:09:31.580Z,98778.23
2022-08-30T06:12:04.274Z,98774.23
2022-08-30T06:14:43.199Z,98768.80
2022-08-30T06:18:13.156Z,98773.97
2022-08-30T06:20:50.800Z,98767.83
2022-08-30T06:23:29.084Z,98770.48
2022-08-30T06:26:06.629Z,98772.56
2022-08-30T06:28:39.433Z,98777.23
2022-08-30T06:31:14.576Z,98773.86
2022-08-30T06:33:51.379Z,98773.14
2022-08-30T06:36:26.570Z,98776.92
2022-08-30T06:39:00.461Z,98776.62
2022-08-30T06:41:35.193Z,98772.98
2022-08-30T06:44:09.094Z,98772.05
2022-08-30T06:46:41.500Z,98771.73
2022-08-30T06:49:14.581Z,98772.43
2022-08-30T06:51:46.898Z,98773.09
2022-08-30T06:54:19.330Z,98778.12
2022-08-30T06:56:59.182Z,98775.46
2022-08-30T06:59:32.660Z,98782.64
2022-08-30T07:02:04.897Z,98781.77
2022-08-30T07:04:38.873Z,98785.02
2022-08-30T07:07:15.654Z,98788.83
2022-08-30T07:09:48.151Z,98791.02
2022-08-30T07:12:20.313Z,98795.12
2022-08-30T07:14:52.425Z,98797.21
2022-08-30T07:17:42.433Z,98790.33
2022-08-30T07:20:14.865Z,98795.83
2022-08-30T07:22:47.481Z,98798.14
2022-08-30T07:25:19.922Z,98794.27
2022-08-30T07:27:53.079Z,98794.92
2022-08-30T07:30:26.133Z,98797.34
2022-08-30T07:32:58.476Z,98797.80
2022-08-30T07:35:31.540Z,98798.84
2022-08-30T07:38:03.789Z,98796.89
2022-08-30T07:40:36.039Z,98795.60
2022-08-30T07:43:08.235Z,98794.30
2022-08-30T07:45:41.024Z,98795.29
2022-08-30T07:48:16.172Z,98803.65
2022-08-30T07:50:48.720Z,98803.37
2022-08-30T07:53:21.993Z,98800.96
2022-08-30T07:55:55.112Z,98797.75
2022-08-30T07:58:27.384Z,98801.46
2022-08-30T08:01:00.358Z,98802.91
2022-08-30T08:03:32.991Z,98800.49
2022-08-30T08:06:07.756Z,98798.41
2022-08-30T08:08:40.781Z,98800.36
2022-08-30T08:11:16.615Z,98806.08
2022-08-30T08:13:54.363Z,98807.79
2022-08-30T08:16:31.569Z,98810.41
2022-08-30T08:19:08.933Z,98813.60
2022-08-30T08:21:41.274Z,98815.14
2022-08-30T08:24:13.909Z,98817.64
2022-08-30T08:26:46.173Z,98817.85
2022-08-30T08:29:18.653Z,98820.14
2022-08-30T08:31:50.994Z,98820.84
2022-08-30T08:34:24.599Z,98824.84
2022-08-30T08:36:56.777Z,98824.66
2022-08-30T08:39:28.952Z,98823.14
2022-08-30T08:42:06.973Z,98825.63
2022-08-30T08:44:54.282Z,98829.79
2022-08-30T08:47:37.481Z,98828.83
2022-08-30T08:50:18.876Z,98828.25
2022-08-30T08:53:25.166Z,98829.91
2022-08-30T08:56:15.225Z,98832.63
2022-08-30T08:58:49.989Z,98833.48
2022-08-30T09:01:25.528Z,98830.98
2022-08-30T09:03:59.455Z,98835.32
2022-08-30T09:06:50.334Z,98841.67
2022-08-30T09:09:27.873Z,98843.03
2022-08-30T09:12:00.245Z,98842.56
2022-08-30T09:14:38.802Z,98840.61
2022-08-30T09:17:15.034Z,98842.25
2022-08-30T09:19:58.521Z,98836.52
2022-08-30T09:22:36.151Z,98833.48
2022-08-30T09:25:11.713Z,98833.34
2022-08-30T09:27:49.408Z,98827.54
2022-08-30T09:31:11.906Z,98826.70
2022-08-30T09:33:57.065Z,98829.94
2022-08-30T09:36:30.779Z,98829.48
2022-08-30T09:39:06.038Z,98826.60
2022-08-30T09:41:45.337Z,98818.35
2022-08-30T09:44:20.788Z,98821.64
2022-08-30T09:47:04.691Z,98818.48
2022-08-30T09:49:40.068Z,98822.33
2022-08-30T09:52:36.390Z,98823.88
2022-08-30T09:55:22.810Z,98823.77
2022-08-30T09:58:04.651Z,98819.02
2022-08-30T10:00:43.197Z,98818.56
2022-08-30T10:03:36.207Z,98821.13
2022-08-30T10:06:19.931Z,98817.55
2022-08-30T10:09:04.669Z,98809.45
2022-08-30T10:11:43.887Z,98805.48
2022-08-30T10:14:42.331Z,98809.80
2022-08-30T10:17:27.074Z,98798.59
2022-08-30T10:20:20.584Z,98807.40
2022-08-30T10:22:58.858Z,98801.50
2022-08-30T10:25:36.230Z,98802.04
2022-08-30T10:28:15.675Z,98796.40
2022-08-30T10:30:55.396Z,98796.13
2022-08-30T10:33:31.713Z,98798.77
2022-08-30T10:36:10.486Z,98794.81
2022-08-30T10:38:47.867Z,98790.86
2022-08-30T10:41:29.512Z,98788.82
2022-08-30T10:44:08.165Z,98779.48
2022-08-30T10:46:49.415Z,98785.27
2022-08-30T10:49:25.008Z,98783.56
2022-08-30T10:52:06.207Z,98787.14
2022-08-30T10:54:44.533Z,98782.13
2022-08-30T10:57:16.705Z,98775.35
2022-08-30T10:59:55.814Z,98773.80
2022-08-30T11:03:10.118Z,98768.95
2022-08-30T11:06:37.429Z,98768.86
2022-08-30T11:09:39.246Z,98770.52
2022-08-30T11:12:30.539Z,98761.76
2022-08-30T11:15:18.040Z,98760.95
2022-08-30T11:18:01.943Z,98769.43
2022-08-30T11:20:39.959Z,98773.86
2022-08-30T11:23:37.238Z,98774.41
2022-08-30T11:26:20.377Z,98774.27
2022-08-30T11:29:10.478Z,98774.21
2022-08-30T11:31:45.299Z,98774.20
2022-08-30T11:34:59.887Z,98774.94
2022-08-30T11:37:39.613Z,98765.17
2022-08-30T11:40:34.525Z,98764.89
2022-08-30T11:43:43.312Z,98757.27
2022-08-30T11:46:24.445Z,98753.80
2022-08-30T11:49:03.360Z,98755.59
2022-08-30T11:52:23.664Z,98755.73
2022-08-30T11:55:06.897Z,98754.21
2022-08-30T11:57:51.457Z,98754.64
2022-08-30T12:00:35.063Z,98755.63
2022-08-30T12:03:25.699Z,98756.22
2022-08-30T12:06:01.197Z,98756.52
2022-08-30T12:09:02.104Z,98757.09
2022-08-30T12:11:59.953Z,98756.95
2022-08-30T12:14:55.762Z,98755.80
2022-08-30T12:17:50.597Z,98756.41
2022-08-30T12:20:40.189Z,98754.69
2022-08-30T12:23:22.431Z,98749.14
2022-08-30T12:26:13.098Z,98746.35
2022-08-30T12:28:49.193Z,98740.21
2022-08-30T12:31:24.792Z,98740.74
2022-08-30T12:34:00.827Z,98735.48
2022-08-30T12:36:40.490Z,98728.38
2022-08-30T12:39:16.829Z,98724.77
2022-08-30T12:41:50.294Z,98725.83
2022-08-30T12:44:26.443Z,98728.89
2022-08-30T12:47:03.067Z,98734.37
2022-08-30T12:49:39.127Z,98732.65
2022-08-30T12:52:24.155Z,98729.65
2022-08-30T12:55:17.244Z,98719.30
2022-08-30T12:58:02.315Z,98717.09
2022-08-30T13:00:37.536Z,98714.35
2022-08-30T13:03:34.446Z,98713.97
2022-08-30T13:06:10.338Z,98716.84
2022-08-30T13:08:54.586Z,98718.31
2022-08-30T13:11:29.647Z,98707.66
2022-08-30T13:14:31.342Z,98706.91
2022-08-30T13:17:22.718Z,98713.29
2022-08-30T13:20:07.486Z,98711.91
2022-08-30T13:22:41.793Z,98706.98
2022-08-30T13:25:17.198Z,98704.92
2022-08-30T13:27:49.429Z,98702.09
2022-08-30T13:30:22.215Z,98700.43
2022-08-30T13:32:56.126Z,98702.42
2022-08-30T13:35:28.781Z,98700.15
2022-08-30T13:41:42.155Z,98681.60
2022-08-30T13:44:15.894Z,98683.60
2022-08-30T13:46:54.607Z,98686.39
2022-08-30T13:49:46.628Z,98688.99
2022-08-30T13:52:22.920Z,98691.96
2022-08-30T13:54:57.252Z,98698.59
2022-08-30T14:00:25.181Z,98704.05
2022-08-30T14:03:00.257Z,98699.11
2022-08-30T14:05:48.690Z,98701.61
2022-08-30T14:11:19.484Z,98711.11
2022-08-30T14:16:47.438Z,98699.69
2022-08-30T14:19:20.222Z,98700.31
2022-08-30T14:21:52.358Z,98699.94
2022-08-30T14:24:24.629Z,98692.92
2022-08-30T14:26:56.774Z,98690.54
2022-08-30T14:29:30.022Z,98685.54
2022-08-30T14:32:02.374Z,98685.38
2022-08-30T14:34:34.878Z,98685.84
2022-08-30T14:37:07.574Z,98688.66
2022-08-30T14:39:41.632Z,98685.51
2022-08-30T14:42:18.843Z,98685.11
2022-08-30T14:44:56.591Z,98682.54
2022-08-30T14:47:29.733Z,98682.90
2022-08-30T14:50:05.697Z,98679.58
2022-08-30T14:52:38.113Z,98675.06
2022-08-30T14:55:13.581Z,98672.92
2022-08-30T14:57:45.771Z,98667.80
2022-08-30T15:00:20.104Z,98666.97
2022-08-30T15:02:52.672Z,98667.38
2022-08-30T15:05:26.520Z,98667.42
2022-08-30T15:07:59.351Z,98664.73
2022-08-30T15:10:32.438Z,98666.06
2022-08-30T15:13:06.796Z,98665.58
2022-08-30T15:15:45.375Z,98662.16
2022-08-30T15:18:20.076Z,98660.17
2022-08-30T15:21:00.578Z,98656.23
2022-08-30T15:23:34.444Z,98656.05
2022-08-30T15:26:19.300Z,98652.70
2022-08-30T15:28:53.147Z,98649.09
2022-08-30T15:31:28.363Z,98649.19
2022-08-30T15:34:03.181Z,98651.16
2022-08-30T15:37:24.026Z,98659.13
2022-08-30T15:44:21.695Z,98658.25
2022-08-30T15:46:54.484Z,98655.54
2022-08-30T15:49:27.733Z,98653.77
2022-08-30T15:52:03.364Z,98655.84
2022-08-30T15:54:36.421Z,98655.77
2022-08-30T15:57:08.747Z,98657.92
2022-08-30T15:59:42.955Z,98652.90
2022-08-30T16:02:15.372Z,98656.83
2022-08-30T16:04:50.411Z,98653.33
2022-08-30T16:07:25.097Z,98647.11
2022-08-30T16:09:58.141Z,98652.04
2022-08-30T16:12:30.460Z,98651.13
2022-08-30T16:15:02.741Z,98650.49
2022-08-30T16:17:35.823Z,98645.27
2022-08-30T16:20:11.809Z,98652.73
2022-08-30T16:22:46.115Z,98656.20
2022-08-30T16:25:20.305Z,98656.78
2022-08-30T16:27:53.401Z,98659.52
2022-08-30T16:30:26.191Z,98652.29
2022-08-30T16:32:58.596Z,98658.67
2022-08-30T16:35:30.796Z,98652.95
2022-08-30T16:38:03.177Z,98654.73
2022-08-30T16:40:37.331Z,98647.55
2022-08-30T16:43:09.869Z,98649.44
2022-08-30T16:45:42.995Z,98650.77
2022-08-30T16:48:16.805Z,98652.02
2022-08-30T16:50:49.258Z,98662.27
2022-08-30T16:53:21.928Z,98660.91
2022-08-30T16:56:07.568Z,98661.88
2022-08-30T16:58:42.752Z,98662.02
2022-08-30T17:01:20.146Z,98665.83
2022-08-30T17:03:58.243Z,98666.08
2022-08-30T17:06:35.691Z,98668.23
2022-08-30T17:09:15.095Z,98667.98
2022-08-30T17:11:52.448Z,98672.88
2022-08-30T17:14:27.949Z,98673.00
2022-08-30T17:17:05.440Z,98675.23
2022-08-30T17:19:43.797Z,98677.22
2022-08-30T17:22:16.796Z,98678.13
2022-08-30T17:24:52.641Z,98678.28
2022-08-30T17:27:35.072Z,98683.32
2022-08-30T17:30:19.660Z,98683.75
2022-08-30T17:33:11.407Z,98691.16
2022-08-30T17:35:56.585Z,98697.39
2022-08-30T18:17:26.663Z,98749.52
2022-08-30T18:21:55.417Z,98754.18
2022-08-30T18:26:24.122Z,98757.80
2022-08-30T18:30:13.414Z,98761.42
2022-08-30T18:32:48.274Z,98761.48
2022-08-30T18:36:42.570Z,98763.83
2022-08-30T18:40:51.381Z,98764.69
2022-08-30T18:44:10.945Z,98763.73
2022-08-30T18:47:23.061Z,98764.45
2022-08-30T19:06:14.550Z,98775.16
2022-08-30T19:08:46.940Z,98776.05
2022-08-30T19:11:25.860Z,98772.23
2022-08-30T19:14:03.916Z,98777.84
2022-08-30T19:16:36.788Z,98769.41
2022-08-30T19:19:19.829Z,98771.09
2022-08-30T19:30:46.097Z,98771.92
2022-08-30T19:34:09.624Z,98769.98
2022-08-30T19:47:46.059Z,98771.08
2022-08-30T19:50:22.224Z,98773.53
2022-08-30T19:52:55.670Z,98770.46
2022-08-30T19:55:37.212Z,98768.51
2022-08-30T19:59:38.237Z,98771.91
2022-08-30T20:06:45.560Z,98772.27
2022-08-30T20:09:18.147Z,98769.02
2022-08-30T20:11:58.987Z,98768.02
2022-08-30T20:14:50.396Z,98770.50
2022-08-30T20:19:00.307Z,98770.14
2022-08-30T20:21:33.211Z,98766.39
2022-08-30T20:24:13.284Z,98765.45
2022-08-30T20:31:37.275Z,98758.43
2022-08-30T20:34:16.461Z,98758.27
2022-08-30T20:36:48.790Z,98758.56
2022-08-30T20:39:21.129Z,98756.73
2022-08-30T20:42:21.328Z,98758.27
2022-08-30T20:49:48.421Z,98757.86
2022-08-30T20:52:27.479Z,98759.59
2022-08-30T20:55:00.381Z,98755.61
2022-08-30T20:58:22.444Z,98753.55
2022-08-30T21:05:22.590Z,98761.92
2022-08-30T21:07:55.919Z,98762.93
2022-08-30T21:10:28.295Z,98766.60
2022-08-30T21:14:05.205Z,98768.71
2022-08-30T21:26:23.719Z,98775.49
2022-08-30T21:29:02.442Z,98783.39
2022-08-30T21:31:37.742Z,98783.92
2022-08-30T21:39:08.491Z,98786.77
2022-08-30T21:41:48.583Z,98783.83
2022-08-30T21:49:13.798Z,98784.68
2022-08-30T21:52:36.290Z,98786.81
2022-08-30T21:55:15.560Z,98789.66
2022-08-30T21:57:47.725Z,98792.48
2022-08-30T22:01:07.697Z,98789.56
2022-08-30T22:03:42.672Z,98796.30
2022-08-30T22:07:03.357Z,98786.52
2022-08-30T22:09:43.924Z,98785.39
2022-08-30T22:12:37.570Z,98782.13
2022-08-30T22:15:16.584Z,98781.23
2022-08-30T22:17:49.536Z,98775.45
2022-08-30T22:20:30.630Z,98769.77
2022-08-30T22:23:46.455Z,98766.48
2022-08-30T22:26:26.566Z,98765.06
2022-08-30T22:29:20.954Z,98759.63
2022-08-30T22:31:54.115Z,98759.40
2022-08-30T22:34:51.070Z,98757.25
2022-08-30T22:37:24.723Z,98758.94
2022-08-30T22:39:57.008Z,98757.04
2022-08-30T22:42:29.845Z,98757.24
2022-08-30T22:45:05.165Z,98755.51
2022-08-30T22:47:39.608Z,98755.02
2022-08-30T22:50:13.312Z,98755.98
2022-08-30T22:52:46.000Z,98757.53
2022-08-30T22:55:18.535Z,98758.23
2022-08-30T22:57:50.870Z,98759.64
2022-08-30T23:00:24.219Z,98762.94
2022-08-30T23:02:58.657Z,98757.95
2022-08-30T23:05:34.485Z,98758.48
2022-08-30T23:08:07.984Z,98752.40
2022-08-30T23:10:40.257Z,98753.48
2022-08-30T23:13:12.839Z,98754.96
2022-08-30T23:15:45.215Z,98756.80
2022-08-30T23:18:17.601Z,98753.30
2022-08-30T23:20:50.160Z,98748.12
2022-08-30T23:23:39.958Z,98752.39
2022-08-30T23:26:30.571Z,98752.55
2022-08-30T23:29:19.113Z,98757.64
2022-08-30T23:32:09.041Z,98761.87
2022-08-30T23:34:58.911Z,98761.73
2022-08-30T23:37:52.142Z,98761.46
2022-08-30T23:40:43.571Z,98760.13
2022-08-30T23:43:33.778Z,98760.39
2022-08-30T23:46:23.701Z,98761.17
2022-08-30T23:49:13.855Z,98757.23
2022-08-30T23:52:03.826Z,98756.59
2022-08-30T23:54:54.905Z,98757.95
2022-08-30T23:57:48.029Z,98760.35
